Time;durP1;ratioP1;P1;durP2;ratioP2;P2;SDS_P1;SDS_P2;PMS_P1;PMS_P2;Temp;Humidity;BMP_temperature;BMP_pressure;BME280_temperature;BME280_humidity;BME280_pressure;Samples;Min_cycle;Max_cycle;Signal;HPM_P1;HPM_P2
2022/05/31 00:00:37;;;;;;;6.47;5.72;;;;;;;;;;5036108;28;92468;-71
2022/05/31 00:03:10;;;;;;;;;;;;;;;;;;5020286;27;94060;-71
2022/05/31 00:05:36;;;;;;;5.65;5.15;;;;;;;;;;5015865;28;123003;-71
2022/05/31 00:08:03;;;;;;;7.65;5.68;;;;;;;;;;5016599;28;92479;-72
2022/05/31 00:10:29;;;;;;;8.18;6.68;;;;;;;;;;5016055;28;93883;-71
2022/05/31 00:12:55;;;;;;;6.70;5.30;;;;;;;;;;5013735;28;96566;-71
2022/05/31 00:15:22;;;;;;;5.57;5.03;;;;;;;;;;5019589;28;93094;-71
2022/05/31 00:17:48;;;;;;;5.82;5.30;;;;;;;;;;5016287;28;93132;-71
2022/05/31 00:20:15;;;;;;;9.25;5.50;;;;;;;;;;5016027;28;92992;-71
2022/05/31 00:22:42;;;;;;;5.40;5.00;;;;;;;;;;5015954;28;94293;-72
2022/05/31 00:25:09;;;;;;;5.97;5.20;;;;;;;;;;5016050;28;94184;-71
2022/05/31 00:27:36;;;;;;;7.25;5.60;;;;;;;;;;5014538;28;92520;-71
2022/05/31 00:30:03;;;;;;;7.63;5.45;;;;;;;;;;5016500;28;94648;-71
2022/05/31 00:32:31;;;;;;;5.88;5.38;;;;;;;;;;5015724;28;93171;-71
2022/05/31 00:34:59;;;;;;;9.80;5.35;;;;;;;;;;5013206;28;92602;-71
2022/05/31 00:37:26;;;;;;;13.30;6.10;;;;;;;;;;5016208;28;94832;-72
2022/05/31 00:39:52;;;;;;;6.70;5.32;;;;;;;;;;5014470;28;92458;-72
2022/05/31 00:42:21;;;;;;;8.05;5.50;;;;;;;;;;5015236;28;92786;-71
2022/05/31 00:44:48;;;;;;;5.75;5.10;;;;;;;;;;4998303;28;94200;-71
2022/05/31 00:47:23;;;;;;;6.25;5.05;;;;;;;;;;4994788;28;92444;-71
2022/05/31 00:49:54;;;;;;;5.70;5.28;;;;;;;;;;4995807;28;93261;-71
2022/05/31 00:52:23;;;;;;;5.50;4.82;;;;;;;;;;4998270;28;93240;-71
2022/05/31 00:55:00;;;;;;;7.78;5.43;;;;;;;;;;5015357;28;91796;-71
2022/05/31 00:57:28;;;;;;;7.95;5.15;;;;;;;;;;5014921;28;92853;-72
2022/05/31 00:59:57;;;;;;;5.65;4.93;;;;;;;;;;5017151;28;95332;-71
2022/05/31 01:02:24;;;;;;;7.78;4.93;;;;;;;;;;5011693;28;95369;-71
2022/05/31 01:04:55;;;;;;;6.22;5.65;;;;;;;;;;5015420;28;93077;-71
2022/05/31 01:07:22;;;;;;;7.57;4.53;;;;;;;;;;5015412;28;92528;-71
2022/05/31 01:09:48;;;;;;;4.97;4.57;;;;;;;;;;5014084;28;93857;-71
2022/05/31 01:12:34;;;;;;;5.10;4.75;;;;;;;;;;5013893;28;92686;-72
2022/05/31 01:15:19;;;;;;;5.28;4.88;;;;;;;;;;5014971;28;92554;-71
2022/05/31 01:18:04;;;;;;;9.15;4.90;;;;;;;;;;5013398;28;92449;-71
2022/05/31 01:20:50;;;;;;;5.15;4.78;;;;;;;;;;5018128;28;93093;-71
2022/05/31 01:23:30;;;;;;;7.18;5.00;;;;;;;;;;5013164;28;94634;-71
2022/05/31 01:26:02;;;;;;;7.00;4.50;;;;;;;;;;5013096;28;95638;-71
2022/05/31 01:28:28;;;;;;;8.10;4.50;;;;;;;;;;5013926;28;96115;-71
2022/05/31 01:30:57;;;;;;;4.68;4.32;;;;;;;;;;5014166;28;96352;-71
2022/05/31 01:33:30;;;;;;;4.75;4.40;;;;;;;;;;5013059;28;95875;-71
2022/05/31 01:35:59;;;;;;;4.22;3.95;;;;;;;;;;5013516;28;93084;-71
2022/05/31 01:38:46;;;;;;;5.07;4.18;;;;;;;;;;5013863;28;92996;-72
2022/05/31 01:41:19;;;;;;;5.63;4.13;;;;;;;;;;5014724;28;93270;-71
2022/05/31 01:43:47;;;;;;;6.20;4.32;;;;;;;;;;5020426;28;92606;-71
2022/05/31 01:46:17;;;;;;;4.72;4.32;;;;;;;;;;5033934;28;95008;-71
2022/05/31 01:48:43;;;;;;;4.45;4.10;;;;;;;;;;5034552;28;92492;-71
2022/05/31 01:51:11;;;;;;;5.22;4.82;;;;;;;;;;5034483;28;92985;-71
2022/05/31 01:53:38;;;;;;;6.60;4.60;;;;;;;;;;5032298;28;95099;-71
2022/05/31 01:56:05;;;;;;;6.68;4.32;;;;;;;;;;5033645;28;93106;-71
2022/05/31 01:58:33;;;;;;;6.15;4.07;;;;;;;;;;5032398;28;94993;-71
2022/05/31 02:01:01;;;;;;;5.03;3.85;;;;;;;;;;5026181;28;94267;-71
2022/05/31 02:03:29;;;;;;;5.55;4.05;;;;;;;;;;5014242;28;92487;-71
2022/05/31 02:05:56;;;;;;;7.28;3.67;;;;;;;;;;5015302;28;94804;-71
2022/05/31 02:08:25;;;;;;;4.28;3.95;;;;;;;;;;5012848;28;92651;-71
2022/05/31 02:10:51;;;;;;;4.72;3.90;;;;;;;;;;5013930;28;94292;-71
2022/05/31 02:13:18;;;;;;;7.30;4.05;;;;;;;;;;5012213;28;94109;-71
2022/05/31 02:15:51;;;;;;;9.18;3.92;;;;;;;;;;5013163;28;92493;-71
2022/05/31 02:21:41;;;;;;;5.07;3.95;;;;;;;;;;5013493;28;92736;-71
2022/05/31 02:24:12;;;;;;;5.45;4.45;;;;;;;;;;5014350;28;92467;-71
2022/05/31 02:26:41;;;;;;;6.32;4.15;;;;;;;;;;5011876;28;93980;-71
2022/05/31 02:29:09;;;;;;;4.70;4.40;;;;;;;;;;5015481;28;93383;-71
2022/05/31 02:31:36;;;;;;;5.32;3.72;;;;;;;;;;5012613;28;92808;-71
2022/05/31 02:34:03;;;;;;;4.70;4.22;;;;;;;;;;5013809;28;93487;-71
2022/05/31 02:36:30;;;;;;;4.13;3.72;;;;;;;;;;5012862;28;91823;-71
2022/05/31 02:38:56;;;;;;;4.90;4.35;;;;;;;;;;5013477;28;93164;-72
2022/05/31 02:41:32;;;;;;;6.15;3.95;;;;;;;;;;5011562;28;95725;-71
2022/05/31 02:43:59;;;;;;;7.72;4.45;;;;;;;;;;5006878;28;95762;-71
2022/05/31 02:46:26;;;;;;;8.05;4.43;;;;;;;;;;5007157;28;97964;-71
2022/05/31 02:48:53;;;;;;;5.88;4.30;;;;;;;;;;5011911;28;95859;-71
2022/05/31 02:51:20;;;;;;;4.70;4.25;;;;;;;;;;5017663;28;92489;-71
2022/05/31 02:53:46;;;;;;;4.38;4.07;;;;;;;;;;5010883;28;95138;-71
2022/05/31 02:56:15;;;;;;;5.47;4.60;;;;;;;;;;5012437;28;92563;-71
2022/05/31 02:59:05;;;;;;;5.18;4.47;;;;;;;;;;5013572;28;93459;-71
2022/05/31 03:02:10;;;;;;;4.45;4.20;;;;;;;;;;4951082;28;92214;-71
2022/05/31 03:05:06;;;;;;;8.98;4.57;;;;;;;;;;4950753;28;92590;-71
2022/05/31 03:07:55;;;;;;;7.63;4.63;;;;;;;;;;5001180;28;92582;-71
2022/05/31 03:10:27;;;;;;;4.10;3.80;;;;;;;;;;5010592;28;97414;-71
2022/05/31 03:12:55;;;;;;;4.22;3.90;;;;;;;;;;5012203;28;92582;-71
2022/05/31 03:15:21;;;;;;;5.00;4.15;;;;;;;;;;5015903;28;92875;-71
2022/05/31 03:17:56;;;;;;;4.75;4.45;;;;;;;;;;5013373;28;92437;-71
2022/05/31 03:20:33;;;;;;;6.45;4.70;;;;;;;;;;5012159;28;94449;-71
2022/05/31 03:23:29;;;;;;;5.40;4.03;;;;;;;;;;5011113;28;96846;-71
2022/05/31 03:25:58;;;;;;;4.90;4.55;;;;;;;;;;4994573;28;93253;-71
2022/05/31 03:28:25;;;;;;;5.75;5.13;;;;;;;;;;5012050;28;93983;-71
2022/05/31 03:30:51;;;;;;;5.10;4.57;;;;;;;;;;5011153;28;94536;-71
2022/05/31 03:33:24;;;;;;;4.88;4.43;;;;;;;;;;5012859;28;92542;-72
2022/05/31 03:35:51;;;;;;;4.93;4.53;;;;;;;;;;5014489;28;94882;-72
2022/05/31 03:38:25;;;;;;;14.73;4.38;;;;;;;;;;5011725;28;93013;-73
2022/05/31 03:41:01;;;;;;;5.18;4.72;;;;;;;;;;5011544;28;93690;-72
2022/05/31 03:43:35;;;;;;;9.05;5.18;;;;;;;;;;5011077;28;94133;-72
2022/05/31 03:46:22;;;;;;;6.68;5.03;;;;;;;;;;4981628;28;92742;-72
2022/05/31 03:49:08;;;;;;;5.15;4.60;;;;;;;;;;5013090;28;93454;-72
2022/05/31 03:52:01;;;;;;;7.68;4.28;;;;;;;;;;5008616;28;93361;-71
2022/05/31 03:54:33;;;;;;;5.55;4.40;;;;;;;;;;5011828;28;91845;-71
2022/05/31 03:57:12;;;;;;;6.47;4.50;;;;;;;;;;5019580;28;92579;-71
2022/05/31 03:59:39;;;;;;;7.72;5.10;;;;;;;;;;5028380;28;95153;-71
2022/05/31 04:02:07;;;;;;;5.22;4.82;;;;;;;;;;5015784;28;95922;-72
2022/05/31 04:04:34;;;;;;;6.75;4.43;;;;;;;;;;5010337;28;95235;-71
2022/05/31 04:07:01;;;;;;;5.25;4.68;;;;;;;;;;5010993;28;92662;-71
2022/05/31 04:09:29;;;;;;;5.80;4.63;;;;;;;;;;5011223;28;95261;-71
2022/05/31 04:11:57;;;;;;;11.25;5.50;;;;;;;;;;5010172;28;94121;-71
2022/05/31 04:14:49;;;;;;;6.63;4.90;;;;;;;;;;5012235;28;92471;-71
2022/05/31 04:17:15;;;;;;;4.97;4.53;;;;;;;;;;5011790;28;92774;-71
2022/05/31 04:19:42;;;;;;;5.97;5.10;;;;;;;;;;5014358;28;95022;-71
2022/05/31 04:22:08;;;;;;;5.78;4.45;;;;;;;;;;5016309;28;92970;-71
2022/05/31 04:24:35;;;;;;;5.28;4.78;;;;;;;;;;5014138;28;93359;-71
2022/05/31 04:27:40;;;;;;;5.28;4.82;;;;;;;;;;5006728;28;94897;-71
2022/05/31 04:30:25;;;;;;;7.93;5.18;;;;;;;;;;4994343;28;94830;-72
2022/05/31 04:33:11;;;;;;;5.03;4.70;;;;;;;;;;4994992;28;93290;-72
2022/05/31 04:35:39;;;;;;;5.43;5.03;;;;;;;;;;4994138;28;92537;-71
2022/05/31 04:38:05;;;;;;;6.25;5.15;;;;;;;;;;4995903;28;94397;-71
2022/05/31 04:41:04;;;;;;;13.52;4.68;;;;;;;;;;4988044;28;93423;-71
2022/05/31 04:43:53;;;;;;;6.05;5.28;;;;;;;;;;5011225;28;92560;-71
2022/05/31 04:46:32;;;;;;;5.45;4.93;;;;;;;;;;5008341;28;93872;-71
2022/05/31 04:49:32;;;;;;;6.93;5.22;;;;;;;;;;5014005;28;92601;-71
2022/05/31 04:51:58;;;;;;;10.07;4.93;;;;;;;;;;5014236;28;95535;-71
2022/05/31 04:54:32;;;;;;;9.50;5.20;;;;;;;;;;4999702;28;97839;-71
2022/05/31 04:57:11;;;;;;;6.05;5.53;;;;;;;;;;5011019;28;92550;-71
2022/05/31 04:59:38;;;;;;;9.60;5.30;;;;;;;;;;4994172;28;92924;-71
2022/05/31 05:02:05;;;;;;;11.02;5.50;;;;;;;;;;5005137;28;93256;-72
2022/05/31 05:04:38;;;;;;;8.73;5.32;;;;;;;;;;5013466;28;92569;-71
2022/05/31 05:07:06;;;;;;;7.05;5.05;;;;;;;;;;5012978;28;94679;-72
2022/05/31 05:09:32;;;;;;;5.43;4.93;;;;;;;;;;5014184;28;93205;-71
2022/05/31 05:12:17;;;;;;;5.53;5.00;;;;;;;;;;5014166;28;92413;-72
2022/05/31 05:14:47;;;;;;;7.70;5.20;;;;;;;;;;5013012;28;93211;-72
2022/05/31 05:17:16;;;;;;;7.68;4.72;;;;;;;;;;5008929;28;92540;-72
2022/05/31 05:19:46;;;;;;;6.47;5.15;;;;;;;;;;4991989;28;95275;-72
2022/05/31 05:22:12;;;;;;;4.75;4.40;;;;;;;;;;5000666;28;95299;-72
2022/05/31 05:24:39;;;;;;;8.80;5.60;;;;;;;;;;5015102;28;92908;-71
2022/05/31 05:27:23;;;;;;;8.77;4.85;;;;;;;;;;5014115;28;92843;-72
2022/05/31 05:32:44;;;;;;;8.52;5.78;;;;;;;;;;5016396;28;92567;-71
2022/05/31 05:35:14;;;;;;;6.55;5.03;;;;;;;;;;5013191;28;93262;-72
2022/05/31 05:37:46;;;;;;;7.30;5.65;;;;;;;;;;4999271;28;92033;-71
2022/05/31 05:40:15;;;;;;;6.60;6.05;;;;;;;;;;5012632;28;92503;-72
2022/05/31 05:42:58;;;;;;;;;;;;;;;;;;5013290;28;94200;-72
2022/05/31 05:45:32;;;;;;;6.43;5.82;;;;;;;;;;5013076;28;94957;-72
2022/05/31 05:47:58;;;;;;;6.63;5.97;;;;;;;;;;5015015;28;93913;-72
2022/05/31 05:50:33;;;;;;;9.77;6.32;;;;;;;;;;5009578;28;94093;-72
2022/05/31 05:53:07;;;;;;;6.88;6.00;;;;;;;;;;5015691;28;93196;-72
2022/05/31 05:55:52;;;;;;;6.57;5.88;;;;;;;;;;5013628;28;92666;-72
2022/05/31 05:58:37;;;;;;;11.35;5.72;;;;;;;;;;5014051;28;92665;-72
2022/05/31 06:01:26;;;;;;;6.18;5.57;;;;;;;;;;5012581;28;92443;-72
2022/05/31 06:04:35;;;;;;;8.15;5.70;;;;;;;;;;4994791;28;93137;-72
2022/05/31 06:07:11;;;;;;;9.93;5.55;;;;;;;;;;5010315;28;93628;-70
2022/05/31 06:09:38;;;;;;;10.48;5.63;;;;;;;;;;5008817;28;93118;-71
2022/05/31 06:12:08;;;;;;;8.10;5.50;;;;;;;;;;5011898;28;95677;-71
2022/05/31 06:14:38;;;;;;;8.73;5.32;;;;;;;;;;5011034;28;92592;-71
2022/05/31 06:17:06;;;;;;;6.82;5.05;;;;;;;;;;5009467;28;95522;-70
2022/05/31 06:19:33;;;;;;;13.30;5.25;;;;;;;;;;5000291;28;92988;-71
2022/05/31 06:22:01;;;;;;;9.20;4.72;;;;;;;;;;5003781;28;92864;-71
2022/05/31 06:24:34;;;;;;;10.13;5.50;;;;;;;;;;4992306;28;93832;-71
2022/05/31 06:27:21;;;;;;;9.65;5.07;;;;;;;;;;5008758;28;94185;-71
2022/05/31 06:29:47;;;;;;;10.85;5.35;;;;;;;;;;5008459;28;94960;-71
2022/05/31 06:32:16;;;;;;;8.48;5.50;;;;;;;;;;5004145;28;95108;-71
2022/05/31 06:34:45;;;;;;;7.20;4.70;;;;;;;;;;4993877;28;92644;-71
2022/05/31 06:37:30;;;;;;;10.32;4.97;;;;;;;;;;4992468;28;96854;-71
2022/05/31 06:39:57;;;;;;;10.88;4.88;;;;;;;;;;4995690;28;93091;-71
2022/05/31 06:42:52;;;;;;;7.32;5.32;;;;;;;;;;5011768;28;94023;-74
2022/05/31 06:45:37;;;;;;;4.78;4.40;;;;;;;;;;5005514;28;92649;-71
2022/05/31 06:48:22;;;;;;;10.95;5.10;;;;;;;;;;4994219;28;92469;-71
2022/05/31 06:51:09;;;;;;;12.63;5.40;;;;;;;;;;5020691;28;92456;-71
2022/05/31 06:57:02;;;;;;;8.32;5.00;;;;;;;;;;5013874;28;91841;-72
2022/05/31 06:59:47;;;;;;;10.73;4.78;;;;;;;;;;5012371;28;92610;-72
2022/05/31 07:02:14;;;;;;;7.78;4.80;;;;;;;;;;5011629;28;93596;-71
2022/05/31 07:04:42;;;;;;;7.72;5.22;;;;;;;;;;5013797;28;95205;-72
2022/05/31 07:07:09;;;;;;;8.55;5.38;;;;;;;;;;5019397;28;93147;-72
2022/05/31 07:09:50;;;;;;;8.50;5.33;;;;;;;;;;5033721;28;92703;-71
2022/05/31 07:12:35;;;;;;;10.38;5.18;;;;;;;;;;5012138;28;92567;-71
2022/05/31 07:15:22;;;;;;;9.65;5.35;;;;;;;;;;5007866;28;92767;-71
2022/05/31 07:17:48;;;;;;;7.95;5.80;;;;;;;;;;5004342;28;92614;-71
2022/05/31 07:20:14;;;;;;;10.05;5.28;;;;;;;;;;5005235;28;94728;-71
2022/05/31 07:22:41;;;;;;;6.05;5.45;;;;;;;;;;4991161;28;92933;-71
2022/05/31 07:25:28;;;;;;;12.77;6.30;;;;;;;;;;4992121;28;93053;-71
2022/05/31 07:28:01;;;;;;;6.88;6.00;;;;;;;;;;4994344;28;95197;-71
2022/05/31 07:30:28;;;;;;;11.50;6.40;;;;;;;;;;4994996;28;95082;-71
2022/05/31 07:32:56;;;;;;;9.43;6.45;;;;;;;;;;5016366;28;98029;-71
2022/05/31 07:35:45;;;;;;;9.38;6.10;;;;;;;;;;5008710;28;95778;-71
2022/05/31 07:38:11;;;;;;;9.00;6.75;;;;;;;;;;5030825;28;93150;-71
2022/05/31 07:40:43;;;;;;;13.10;6.47;;;;;;;;;;5023587;28;95314;-71
2022/05/31 07:43:10;;;;;;;9.13;6.97;;;;;;;;;;4997189;28;94450;-71
2022/05/31 07:45:37;;;;;;;11.13;7.57;;;;;;;;;;5002514;28;92608;-71
2022/05/31 07:48:06;;;;;;;7.07;5.70;;;;;;;;;;5012892;28;93433;-71
2022/05/31 07:50:32;;;;;;;10.73;6.93;;;;;;;;;;5022812;28;92580;-70
2022/05/31 07:53:19;;;;;;;13.00;6.72;;;;;;;;;;4996445;28;93765;-70
2022/05/31 07:56:13;;;;;;;9.27;6.93;;;;;;;;;;4992558;28;96223;-70
2022/05/31 07:59:03;;;;;;;8.32;6.40;;;;;;;;;;5015005;28;92504;-70
2022/05/31 08:02:07;;;;;;;10.43;6.75;;;;;;;;;;5005555;28;92598;-70
2022/05/31 08:04:46;;;;;;;8.10;6.78;;;;;;;;;;4994066;28;92913;-70
2022/05/31 08:07:12;;;;;;;10.02;6.50;;;;;;;;;;4996531;28;92476;-70
2022/05/31 08:09:38;;;;;;;10.98;6.45;;;;;;;;;;5012805;28;93218;-70
2022/05/31 08:12:09;;;;;;;10.60;6.65;;;;;;;;;;5018608;28;93064;-70
2022/05/31 08:14:35;;;;;;;11.88;6.95;;;;;;;;;;5016381;28;93274;-69
2022/05/31 08:17:03;;;;;;;9.73;6.90;;;;;;;;;;5016086;28;93484;-70
2022/05/31 08:19:30;;;;;;;10.65;6.25;;;;;;;;;;5015233;28;92528;-69
2022/05/31 08:21:57;;;;;;;5.95;5.30;;;;;;;;;;5014685;28;95492;-71
2022/05/31 08:24:24;;;;;;;8.38;6.63;;;;;;;;;;5014715;28;93453;-70
2022/05/31 08:27:09;;;;;;;6.40;5.72;;;;;;;;;;5016050;28;92508;-70
2022/05/31 08:29:36;;;;;;;13.27;6.40;;;;;;;;;;5015763;28;93868;-70
2022/05/31 08:32:02;;;;;;;11.45;5.97;;;;;;;;;;5015229;28;94424;-70
2022/05/31 08:34:29;;;;;;;8.57;5.40;;;;;;;;;;5018701;28;92514;-70
2022/05/31 08:36:55;;;;;;;9.73;5.85;;;;;;;;;;5015850;28;93640;-70
2022/05/31 08:39:22;;;;;;;9.20;5.78;;;;;;;;;;5014844;28;92005;-70
2022/05/31 08:41:50;;;;;;;6.97;5.03;;;;;;;;;;5015837;28;92839;-70
2022/05/31 08:44:19;;;;;;;8.43;5.25;;;;;;;;;;5015714;28;93420;-70
2022/05/31 08:46:45;;;;;;;6.38;4.70;;;;;;;;;;5006067;28;97939;-71
2022/05/31 08:49:23;;;;;;;6.93;5.55;;;;;;;;;;4995752;28;95136;-71
2022/05/31 08:52:04;;;;;;;6.03;4.43;;;;;;;;;;4995561;28;93331;-71
2022/05/31 08:57:41;;;;;;;6.13;4.37;;;;;;;;;;4997375;28;93423;-71
2022/05/31 09:00:33;;;;;;;10.10;5.68;;;;;;;;;;4994777;28;92892;-71
2022/05/31 09:03:09;;;;;;;8.90;5.38;;;;;;;;;;4994693;28;93126;-71
2022/05/31 09:06:01;;;;;;;6.15;4.95;;;;;;;;;;4996132;28;92511;-71
2022/05/31 09:08:36;;;;;;;8.90;4.97;;;;;;;;;;4992351;28;93090;-71
2022/05/31 09:11:02;;;;;;;6.25;3.97;;;;;;;;;;4995429;28;92993;-71
2022/05/31 09:13:49;;;;;;;5.88;3.80;;;;;;;;;;4992977;28;95544;-71
2022/05/31 09:16:23;;;;;;;7.00;3.00;;;;;;;;;;4995358;28;92659;-72
2022/05/31 09:18:51;;;;;;;4.22;3.13;;;;;;;;;;4995318;28;93598;-71
2022/05/31 09:21:25;;;;;;;4.30;3.83;;;;;;;;;;4997867;28;93579;-71
2022/05/31 09:23:52;;;;;;;9.95;3.90;;;;;;;;;;4995481;28;93830;-71
2022/05/31 09:26:37;;;;;;;5.38;3.58;;;;;;;;;;4995612;28;93159;-71
2022/05/31 09:29:14;;;;;;;6.03;3.45;;;;;;;;;;4994443;28;92500;-72
2022/05/31 09:31:47;;;;;;;5.10;3.45;;;;;;;;;;4995379;28;93807;-72
2022/05/31 09:34:16;;;;;;;9.10;3.90;;;;;;;;;;4995110;28;93249;-71
2022/05/31 09:37:02;;;;;;;4.50;3.72;;;;;;;;;;4993962;28;92568;-72
2022/05/31 09:39:32;;;;;;;12.18;3.58;;;;;;;;;;4992846;28;94894;-71
2022/05/31 09:42:06;;;;;;;4.07;3.78;;;;;;;;;;4994221;28;93405;-71
2022/05/31 09:44:42;;;;;;;5.07;3.58;;;;;;;;;;4998067;28;93186;-70
2022/05/31 09:47:15;;;;;;;4.57;3.25;;;;;;;;;;4994820;28;93434;-70
2022/05/31 09:49:43;;;;;;;7.28;3.35;;;;;;;;;;4994157;28;92879;-71
2022/05/31 09:52:11;;;;;;;8.43;3.72;;;;;;;;;;4994676;28;94010;-70
2022/05/31 09:58:06;;;;;;;4.40;4.00;;;;;;;;;;4978960;28;91777;-70
2022/05/31 10:01:01;;;;;;;5.95;4.15;;;;;;;;;;4994330;28;92948;-70
2022/05/31 10:03:34;;;;;;;5.93;4.25;;;;;;;;;;4992277;28;95395;-71
2022/05/31 10:06:06;;;;;;;9.33;4.10;;;;;;;;;;4996347;28;94832;-70
2022/05/31 10:08:34;;;;;;;5.97;4.55;;;;;;;;;;4993208;28;94152;-70
2022/05/31 10:11:23;;;;;;;6.40;4.80;;;;;;;;;;4993733;28;92533;-70
2022/05/31 10:14:13;;;;;;;8.05;4.90;;;;;;;;;;4991031;28;93444;-70
2022/05/31 10:16:40;;;;;;;8.52;5.10;;;;;;;;;;4987259;28;95583;-70
2022/05/31 10:19:10;;;;;;;6.53;4.90;;;;;;;;;;4993659;28;92989;-70
2022/05/31 10:21:40;;;;;;;7.05;4.68;;;;;;;;;;4994526;28;93259;-70
2022/05/31 10:24:20;;;;;;;8.82;4.60;;;;;;;;;;5009178;28;95216;-70
2022/05/31 10:27:05;;;;;;;5.50;4.63;;;;;;;;;;4993945;28;92451;-70
2022/05/31 10:30:09;;;;;;;6.03;5.00;;;;;;;;;;4988787;28;92675;-71
2022/05/31 10:32:58;;;;;;;6.47;4.50;;;;;;;;;;4986212;28;96424;-70
2022/05/31 10:35:29;;;;;;;4.78;3.75;;;;;;;;;;4993614;28;96475;-70
2022/05/31 10:37:58;;;;;;;5.47;4.35;;;;;;;;;;4993025;28;93399;-70
2022/05/31 10:40:28;;;;;;;4.82;4.35;;;;;;;;;;4993687;28;92385;-70
2022/05/31 10:42:59;;;;;;;7.10;4.13;;;;;;;;;;4994194;28;94049;-70
2022/05/31 10:45:27;;;;;;;7.53;4.15;;;;;;;;;;4996511;28;94060;-70
2022/05/31 10:47:55;;;;;;;4.78;3.70;;;;;;;;;;4998082;28;95074;-70
2022/05/31 10:50:33;;;;;;;7.65;4.80;;;;;;;;;;4999211;28;94488;-70
2022/05/31 10:53:06;;;;;;;6.35;4.38;;;;;;;;;;5003501;28;94194;-70
2022/05/31 10:55:33;;;;;;;6.25;4.53;;;;;;;;;;5003078;28;93220;-70
2022/05/31 10:58:22;;;;;;;7.97;5.32;;;;;;;;;;4999472;28;95572;-70
2022/05/31 11:01:09;;;;;;;6.10;4.60;;;;;;;;;;4994712;28;94140;-70
2022/05/31 11:03:35;;;;;;;7.32;4.32;;;;;;;;;;4998411;28;93459;-70
2022/05/31 11:06:05;;;;;;;6.57;4.50;;;;;;;;;;4997033;28;94434;-70
2022/05/31 11:11:38;;;;;;;5.50;3.90;;;;;;;;;;5001437;28;94374;-70
2022/05/31 11:14:11;;;;;;;6.68;4.10;;;;;;;;;;5001666;28;96023;-70
2022/05/31 11:16:44;;;;;;;5.97;4.00;;;;;;;;;;5008360;28;93387;-70
2022/05/31 11:19:46;;;;;;;9.30;4.28;;;;;;;;;;4999900;28;94107;-70
2022/05/31 11:22:23;;;;;;;6.05;4.13;;;;;;;;;;4933897;28;93866;-69
2022/05/31 11:25:01;;;;;;;7.30;4.38;;;;;;;;;;4990850;28;95319;-70
2022/05/31 11:27:39;;;;;;;8.85;4.05;;;;;;;;;;5002539;28;93801;-70
2022/05/31 11:30:21;;;;;;;4.95;3.90;;;;;;;;;;5004356;28;94829;-70
2022/05/31 11:32:51;;;;;;;9.35;4.50;;;;;;;;;;5010976;28;94668;-70
2022/05/31 11:35:35;;;;;;;9.40;5.53;;;;;;;;;;5012501;28;95414;-69
2022/05/31 11:38:08;;;;;;;8.88;4.97;;;;;;;;;;5001440;28;92528;-69
2022/05/31 11:40:34;;;;;;;9.35;5.13;;;;;;;;;;5003480;28;94051;-69
2022/05/31 11:43:20;;;;;;;12.20;5.93;;;;;;;;;;4998498;28;94887;-69
2022/05/31 11:45:46;;;;;;;9.73;5.30;;;;;;;;;;5002640;28;92568;-69
2022/05/31 11:48:34;;;;;;;8.20;5.10;;;;;;;;;;4998468;28;96646;-69
2022/05/31 11:51:00;;;;;;;8.63;5.05;;;;;;;;;;4998756;27;95180;-69
2022/05/31 11:53:42;;;;;;;6.25;5.03;;;;;;;;;;4992621;28;96397;-69
2022/05/31 11:56:13;;;;;;;4.93;4.13;;;;;;;;;;4994007;28;94176;-69
2022/05/31 11:58:42;;;;;;;5.72;4.30;;;;;;;;;;5013206;28;92558;-69
2022/05/31 12:01:17;;;;;;;4.10;3.63;;;;;;;;;;5003302;28;93751;-69
2022/05/31 12:03:49;;;;;;;7.90;3.83;;;;;;;;;;4999995;28;95717;-69
2022/05/31 12:06:23;;;;;;;5.65;3.97;;;;;;;;;;5009745;28;94490;-70
2022/05/31 12:09:03;;;;;;;5.80;3.80;;;;;;;;;;5010443;28;94107;-69
2022/05/31 12:11:32;;;;;;;3.70;3.40;;;;;;;;;;5004786;28;92564;-69
2022/05/31 12:13:59;;;;;;;5.28;3.45;;;;;;;;;;5012482;28;94401;-69
2022/05/31 12:16:26;;;;;;;4.95;3.60;;;;;;;;;;5009909;28;95643;-69
2022/05/31 12:19:02;;;;;;;3.75;2.85;;;;;;;;;;4996275;28;92542;-69
2022/05/31 12:21:30;;;;;;;5.18;3.78;;;;;;;;;;4995588;28;93393;-69
2022/05/31 12:24:04;;;;;;;7.50;3.15;;;;;;;;;;4998461;28;93754;-69
2022/05/31 12:26:30;;;;;;;3.30;2.70;;;;;;;;;;4995879;28;92802;-69
2022/05/31 12:29:20;;;;;;;2.78;2.20;;;;;;;;;;5001527;28;94091;-69
2022/05/31 12:31:47;;;;;;;4.30;2.40;;;;;;;;;;5009415;28;93089;-69
2022/05/31 12:34:34;;;;;;;3.03;2.47;;;;;;;;;;5012187;28;94009;-69
2022/05/31 12:37:08;;;;;;;4.43;2.40;;;;;;;;;;4991936;28;93648;-68
2022/05/31 12:39:36;;;;;;;5.85;3.55;;;;;;;;;;5014455;28;92710;-70
2022/05/31 12:42:14;;;;;;;6.22;3.88;;;;;;;;;;5014208;28;94849;-69
2022/05/31 12:44:42;;;;;;;14.80;4.75;;;;;;;;;;5014252;28;93610;-69
2022/05/31 12:47:12;;;;;;;6.60;5.43;;;;;;;;;;5018082;28;92487;-69
2022/05/31 12:49:49;;;;;;;7.18;5.60;;;;;;;;;;4999108;28;93296;-70
2022/05/31 12:52:31;;;;;;;10.45;5.60;;;;;;;;;;4994874;28;93765;-70
2022/05/31 12:54:58;;;;;;;16.15;7.72;;;;;;;;;;4995791;28;93822;-70
2022/05/31 12:58:26;;;;;;;14.30;7.75;;;;;;;;;;4995131;28;94281;-71
2022/05/31 13:00:32;;;;;;;11.07;8.02;;;;;;;;;;4994599;28;91800;-70
2022/05/31 13:03:01;;;;;;;14.82;8.45;;;;;;;;;;4995950;28;92562;-73
2022/05/31 13:05:31;;;;;;;15.60;8.40;;;;;;;;;;4995059;28;94093;-71
2022/05/31 13:08:09;;;;;;;10.75;8.50;;;;;;;;;;4993086;28;94851;-72
2022/05/31 13:10:37;;;;;;;18.75;8.95;;;;;;;;;;4997862;28;96669;-71
2022/05/31 13:21:27;;;;;;;6.07;5.25;;;;;;;;;;4994416;28;92464;-71
2022/05/31 13:24:15;;;;;;;6.00;5.40;;;;;;;;;;5003491;28;93565;-72
2022/05/31 13:26:43;;;;;;;4.93;4.53;;;;;;;;;;4995344;28;93567;-71
2022/05/31 13:29:10;;;;;;;9.50;4.55;;;;;;;;;;4997816;28;93840;-71
2022/05/31 13:31:48;;;;;;;8.07;4.85;;;;;;;;;;4995383;28;96338;-71
2022/05/31 13:34:23;;;;;;;6.70;4.20;;;;;;;;;;4998500;28;96706;-71
2022/05/31 13:36:49;;;;;;;6.65;3.97;;;;;;;;;;4998471;28;95490;-73
2022/05/31 13:39:17;;;;;;;12.82;4.60;;;;;;;;;;5014198;28;93353;-73
2022/05/31 13:41:51;;;;;;;6.05;4.97;;;;;;;;;;5007731;28;92588;-72
2022/05/31 13:44:33;;;;;;;47.53;27.75;;;;;;;;;;4999498;28;93510;-72
2022/05/31 13:47:04;;;;;;;10.25;6.05;;;;;;;;;;4995120;28;94212;-72
2022/05/31 13:49:49;;;;;;;11.33;8.67;;;;;;;;;;5003359;28;92857;-72
2022/05/31 13:52:18;;;;;;;5.72;4.68;;;;;;;;;;4997057;28;92790;-70
2022/05/31 13:54:45;;;;;;;7.53;4.72;;;;;;;;;;5001530;28;93174;-71
2022/05/31 13:57:12;;;;;;;4.50;3.70;;;;;;;;;;5017467;28;93060;-71
2022/05/31 13:59:50;;;;;;;8.35;4.00;;;;;;;;;;5007120;28;96536;-71
2022/05/31 14:02:19;;;;;;;5.20;4.13;;;;;;;;;;4993958;28;92870;-70
2022/05/31 14:04:51;;;;;;;5.05;4.07;;;;;;;;;;4997332;28;93941;-69
2022/05/31 14:07:18;;;;;;;;;;;;;;;;;;4994662;28;93684;-69
2022/05/31 14:09:54;;;;;;;14.07;4.53;;;;;;;;;;4998425;28;117402;-70
2022/05/31 14:12:21;;;;;;;6.57;4.47;;;;;;;;;;5013643;28;94172;-69
2022/05/31 14:14:48;;;;;;;4.45;4.05;;;;;;;;;;5011757;28;95657;-71
2022/05/31 14:17:30;;;;;;;5.45;4.00;;;;;;;;;;5009254;28;91726;-71
2022/05/31 14:20:05;;;;;;;9.57;4.45;;;;;;;;;;4997646;28;93202;-71
2022/05/31 14:22:34;;;;;;;7.15;5.25;;;;;;;;;;5024358;28;92965;-71
2022/05/31 14:25:03;;;;;;;6.88;4.70;;;;;;;;;;5001432;28;95557;-70
2022/05/31 14:27:30;;;;;;;6.47;5.88;;;;;;;;;;5001056;28;94022;-70
2022/05/31 14:30:00;;;;;;;7.65;5.45;;;;;;;;;;5003858;28;93043;-70
2022/05/31 14:32:29;;;;;;;9.10;5.75;;;;;;;;;;5003687;28;93063;-72
2022/05/31 14:34:55;;;;;;;9.15;5.50;;;;;;;;;;4998718;28;93486;-70
2022/05/31 14:37:38;;;;;;;8.60;4.90;;;;;;;;;;5001449;28;92625;-70
2022/05/31 14:40:07;;;;;;;6.67;6.07;;;;;;;;;;5004119;28;93630;-70
2022/05/31 14:42:35;;;;;;;7.72;6.47;;;;;;;;;;5016604;28;92597;-70
2022/05/31 14:45:02;;;;;;;8.40;7.10;;;;;;;;;;5002351;28;93083;-70
2022/05/31 14:47:30;;;;;;;7.97;6.88;;;;;;;;;;4996663;28;94776;-70
2022/05/31 14:50:14;;;;;;;9.50;7.10;;;;;;;;;;5005913;28;95454;-71
2022/05/31 14:52:49;;;;;;;9.07;7.88;;;;;;;;;;4997392;28;95484;-72
2022/05/31 14:55:24;;;;;;;10.50;9.10;;;;;;;;;;4997133;28;94150;-71
2022/05/31 15:00:45;;;;;;;10.32;9.32;;;;;;;;;;4993503;28;93255;-72
2022/05/31 15:03:22;;;;;;;12.43;10.15;;;;;;;;;;4996252;28;93328;-72
2022/05/31 15:05:55;;;;;;;12.40;10.23;;;;;;;;;;4992398;28;93925;-71
2022/05/31 15:08:29;;;;;;;14.35;9.70;;;;;;;;;;4993162;28;94005;-72
2022/05/31 15:18:56;;;;;;;8.73;8.02;;;;;;;;;;4993281;28;93060;-71
2022/05/31 15:19:25;;;;;;;9.23;8.05;;;;;;;;;;5008657;28;92627;-72
2022/05/31 15:21:52;;;;;;;10.00;8.00;;;;;;;;;;5013446;28;92958;-71
2022/05/31 15:24:26;;;;;;;9.05;8.00;;;;;;;;;;5013470;28;94283;-71
2022/05/31 15:26:52;;;;;;;8.32;7.72;;;;;;;;;;5016121;28;92447;-71
2022/05/31 15:29:20;;;;;;;10.18;7.00;;;;;;;;;;5011904;28;94131;-73
2022/05/31 15:31:46;;;;;;;7.43;6.63;;;;;;;;;;5025963;28;92617;-72
2022/05/31 15:34:33;;;;;;;7.20;6.28;;;;;;;;;;4995416;28;93862;-72
2022/05/31 15:37:00;;;;;;;7.90;6.93;;;;;;;;;;4995872;28;94144;-72
2022/05/31 15:39:27;;;;;;;7.18;6.60;;;;;;;;;;5000105;28;93808;-72
2022/05/31 15:41:54;;;;;;;7.85;6.45;;;;;;;;;;5004154;28;97066;-72
2022/05/31 15:44:27;;;;;;;7.65;6.28;;;;;;;;;;4995399;28;94406;-70
2022/05/31 15:46:54;;;;;;;8.57;6.63;;;;;;;;;;4993863;28;92551;-72
2022/05/31 15:49:20;;;;;;;6.63;6.03;;;;;;;;;;5010486;28;92874;-71
2022/05/31 15:51:47;;;;;;;7.03;6.50;;;;;;;;;;4992968;28;92522;-71
2022/05/31 15:54:22;;;;;;;8.45;7.60;;;;;;;;;;4993382;28;93999;-71